Time;durP1;ratioP1;P1;durP2;ratioP2;P2;SDS_P1;SDS_P2;PMS_P1;PMS_P2;Temp;Humidity;BMP_temperature;BMP_pressure;BME280_temperature;BME280_humidity;BME280_pressure;Samples;Min_cycle;Max_cycle;Signal;HPM_P1;HPM_P2
2024/02/23 00:01:40;;;;;;;54.13;46.95;;;10.20;86.70;;;;;;4930027;28;112853;-53
2024/02/23 00:04:07;;;;;;;57.83;47.72;;;10.20;86.60;;;;;;4931492;28;113113;-53
2024/02/23 00:06:34;;;;;;;51.88;43.30;;;10.10;86.80;;;;;;4930158;28;112911;-53
2024/02/23 00:08:59;;;;;;;51.03;45.08;;;10.10;86.90;;;;;;4921780;28;114072;-52
2024/02/23 00:11:25;;;;;;;57.45;46.42;;;10.10;86.90;;;;;;4929490;28;112957;-53
2024/02/23 00:13:51;;;;;;;56.90;48.58;;;10.10;86.90;;;;;;4918888;28;112703;-53
2024/02/23 00:16:16;;;;;;;58.92;47.80;;;10.00;87.30;;;;;;4930800;28;112848;-53
2024/02/23 00:18:42;;;;;;;53.97;43.58;;;10.00;87.20;;;;;;4929880;28;113799;-53
2024/02/23 00:21:08;;;;;;;53.90;45.92;;;10.00;87.00;;;;;;4928228;28;113967;-53
2024/02/23 00:23:33;;;;;;;56.30;47.63;;;10.00;86.90;;;;;;4930619;28;112853;-53
2024/02/23 00:25:59;;;;;;;58.75;47.05;;;10.00;86.90;;;;;;4931215;28;112786;-53
2024/02/23 00:28:25;;;;;;;50.40;43.25;;;10.10;86.90;;;;;;4928640;28;114622;-53
2024/02/23 00:30:51;;;;;;;48.55;42.80;;;10.10;86.80;;;;;;4929348;28;112951;-53
2024/02/23 00:33:16;;;;;;;48.80;43.25;;;10.10;86.60;;;;;;4930457;28;112656;-53
2024/02/23 00:35:42;;;;;;;48.63;42.25;;;10.20;86.50;;;;;;4930282;28;113096;-53
2024/02/23 00:38:08;;;;;;;48.28;42.75;;;10.10;86.60;;;;;;4929242;28;114725;-53
2024/02/23 00:40:33;;;;;;;47.22;40.45;;;10.10;86.60;;;;;;4928730;28;112891;-53
2024/02/23 00:43:00;;;;;;;46.78;41.67;;;10.10;86.50;;;;;;4930990;28;112689;-53
2024/02/23 00:45:26;;;;;;;47.03;41.92;;;10.00;86.70;;;;;;4928651;28;112861;-53
2024/02/23 00:47:52;;;;;;;48.78;42.22;;;10.10;86.60;;;;;;4915771;28;113168;-53
2024/02/23 00:50:18;;;;;;;50.03;44.72;;;10.10;86.80;;;;;;4928890;28;112697;-52
2024/02/23 00:52:43;;;;;;;50.53;44.38;;;10.10;86.80;;;;;;4930189;28;113123;-53
2024/02/23 00:55:09;;;;;;;49.70;44.33;;;9.90;87.30;;;;;;4930145;28;112740;-53
2024/02/23 00:57:35;;;;;;;50.67;44.30;;;9.90;87.50;;;;;;4928894;28;114475;-53
2024/02/23 01:00:04;;;;;;;47.35;42.22;;;9.90;87.30;;;;;;4929036;28;112566;-53
2024/02/23 01:02:31;;;;;;;47.00;41.63;;;9.90;87.40;;;;;;4929718;28;112808;-53
2024/02/23 01:04:58;;;;;;;46.75;41.78;;;9.90;87.50;;;;;;4930649;28;112834;-53
2024/02/23 01:07:24;;;;;;;47.55;42.40;;;10.00;87.30;;;;;;4927776;28;115278;-53
2024/02/23 01:09:50;;;;;;;47.65;42.47;;;10.00;87.30;;;;;;4929483;28;113159;-53
2024/02/23 01:12:16;;;;;;;55.13;46.28;;;9.90;87.50;;;;;;4929056;28;112892;-53
2024/02/23 01:14:42;;;;;;;51.80;45.95;;;9.90;87.60;;;;;;4928599;28;112720;-52
2024/02/23 01:17:07;;;;;;;48.45;43.05;;;9.80;87.90;;;;;;4928734;28;113887;-53
2024/02/23 01:19:33;;;;;;;48.50;42.80;;;9.90;87.60;;;;;;4928800;28;113766;-53
2024/02/23 01:21:59;;;;;;;47.75;42.60;;;10.00;87.20;;;;;;4927840;28;112604;-53
2024/02/23 01:24:29;;;;;;;47.63;42.53;;;10.00;87.10;;;;;;4928074;28;112903;-53
2024/02/23 01:26:55;;;;;;;46.92;41.90;;;10.00;87.20;;;;;;4928544;28;113723;-53
2024/02/23 01:29:24;;;;;;;45.92;40.65;;;10.00;87.00;;;;;;4928631;28;112641;-53
2024/02/23 01:31:51;;;;;;;45.03;40.28;;;10.00;86.90;;;;;;4927124;28;113038;-53
2024/02/23 01:34:17;;;;;;;48.95;42.05;;;10.00;87.30;;;;;;4929530;28;113037;-53
2024/02/23 01:36:43;;;;;;;45.92;40.70;;;9.90;87.50;;;;;;4928543;28;114448;-52
2024/02/23 01:39:09;;;;;;;44.78;39.97;;;9.90;87.30;;;;;;4926498;28;114927;-52
2024/02/23 01:41:35;;;;;;;44.58;39.63;;;10.00;87.20;;;;;;4918907;28;112871;-53
2024/02/23 01:44:01;;;;;;;43.72;39.13;;;10.00;87.20;;;;;;4928891;28;112751;-53
2024/02/23 01:46:27;;;;;;;41.67;37.17;;;10.00;87.30;;;;;;4927095;28;114943;-52
2024/02/23 01:48:53;;;;;;;41.13;36.78;;;10.00;87.10;;;;;;4928134;28;113899;-52
2024/02/23 01:51:19;;;;;;;41.03;36.63;;;10.00;87.20;;;;;;4929078;28;112724;-53
2024/02/23 01:53:45;;;;;;;42.85;38.25;;;10.00;87.10;;;;;;4929188;28;113312;-53
2024/02/23 01:56:17;;;;;;;43.50;38.53;;;10.00;87.10;;;;;;4928639;28;113194;-53
2024/02/23 01:58:44;;;;;;;45.08;38.92;;;9.90;87.30;;;;;;4928282;28;112867;-53
2024/02/23 02:01:10;;;;;;;39.70;35.53;;;9.90;87.40;;;;;;4923920;28;113092;-53
2024/02/23 02:03:38;;;;;;;40.50;36.22;;;10.00;87.40;;;;;;4923559;28;112824;-51
2024/02/23 02:06:09;;;;;;;41.42;37.05;;;10.00;87.20;;;;;;4927256;28;113735;-52
2024/02/23 02:08:35;;;;;;;40.45;36.15;;;10.00;87.10;;;;;;4928426;28;113038;-51
2024/02/23 02:11:01;;;;;;;39.67;35.47;;;10.00;87.30;;;;;;4928179;28;112997;-52
2024/02/23 02:13:28;;;;;;;40.08;35.53;;;9.90;87.40;;;;;;4929356;28;112887;-52
2024/02/23 02:15:54;;;;;;;38.15;34.15;;;9.90;87.60;;;;;;4927234;28;113897;-50
2024/02/23 02:18:19;;;;;;;40.42;36.03;;;9.90;87.80;;;;;;4927580;28;112960;-52
2024/02/23 02:20:54;;;;;;;38.80;34.50;;;9.90;87.80;;;;;;4928670;28;112509;-52
2024/02/23 02:23:19;;;;;;;36.80;32.95;;;9.90;87.70;;;;;;4928925;28;112975;-52
2024/02/23 02:25:45;;;;;;;37.55;33.63;;;9.90;87.50;;;;;;4923943;28;113213;-53
2024/02/23 02:28:11;;;;;;;39.53;35.22;;;9.90;87.50;;;;;;4928040;28;113173;-53
2024/02/23 02:30:37;;;;;;;39.17;34.22;;;9.90;87.40;;;;;;4929134;28;112805;-53
2024/02/23 02:33:03;;;;;;;39.38;34.95;;;9.90;87.60;;;;;;4928710;28;113107;-55
2024/02/23 02:35:29;;;;;;;38.60;34.35;;;9.90;87.70;;;;;;4927708;28;114886;-53
2024/02/23 02:37:55;;;;;;;35.58;31.77;;;9.90;87.60;;;;;;4927946;28;112624;-53
2024/02/23 02:40:21;;;;;;;36.28;32.35;;;9.90;87.50;;;;;;4928244;28;113027;-53
2024/02/23 02:42:46;;;;;;;36.65;32.75;;;10.00;87.60;;;;;;4929013;28;112711;-52
2024/02/23 02:45:12;;;;;;;38.30;32.85;;;10.00;87.60;;;;;;4926529;28;114723;-53
2024/02/23 02:47:38;;;;;;;35.47;31.67;;;9.90;87.80;;;;;;4921030;28;112715;-53
2024/02/23 02:50:06;;;;;;;35.85;31.95;;;9.90;87.90;;;;;;4928462;28;112970;-52
2024/02/23 02:52:32;;;;;;;33.75;30.30;;;10.00;87.70;;;;;;4928141;28;112659;-52
2024/02/23 02:54:58;;;;;;;37.95;32.55;;;10.00;87.70;;;;;;4927623;28;113766;-53
2024/02/23 02:57:23;;;;;;;34.25;30.65;;;9.90;87.70;;;;;;4927859;28;112572;-53
2024/02/23 02:59:50;;;;;;;34.33;30.65;;;9.90;88.00;;;;;;4928051;28;112710;-53
2024/02/23 03:02:15;;;;;;;34.92;31.17;;;10.00;87.80;;;;;;4923987;28;113074;-53
2024/02/23 03:04:48;;;;;;;34.05;30.42;;;9.90;88.00;;;;;;4926997;28;114504;-53
2024/02/23 03:07:15;;;;;;;30.90;27.67;;;10.00;87.90;;;;;;4926789;28;112777;-53
2024/02/23 03:09:40;;;;;;;33.90;27.63;;;10.00;87.70;;;;;;4928106;28;112963;-53
2024/02/23 03:12:06;;;;;;;31.10;27.77;;;10.00;87.70;;;;;;4927405;28;112895;-53
2024/02/23 03:14:33;;;;;;;30.85;27.15;;;10.10;87.50;;;;;;4916839;28;113190;-52
2024/02/23 03:16:59;;;;;;;30.88;27.05;;;10.00;87.70;;;;;;4927117;28;112605;-53
2024/02/23 03:19:25;;;;;;;29.67;26.38;;;10.00;87.80;;;;;;4930433;28;112501;-53
2024/02/23 03:21:51;;;;;;;29.65;26.45;;;10.10;87.60;;;;;;4931279;28;112773;-53
2024/02/23 03:24:17;;;;;;;30.35;26.63;;;10.10;87.60;;;;;;4930212;28;113152;-52
2024/02/23 03:26:43;;;;;;;30.23;27.05;;;10.00;87.70;;;;;;4931078;28;112611;-53
2024/02/23 03:29:10;;;;;;;28.33;25.23;;;10.00;88.10;;;;;;4931575;28;112723;-53
2024/02/23 03:31:36;;;;;;;29.42;26.23;;;10.00;88.00;;;;;;4921702;28;112839;-53
2024/02/23 03:34:03;;;;;;;30.42;27.48;;;10.00;88.10;;;;;;4929279;28;113320;-52
2024/02/23 03:36:28;;;;;;;27.52;24.52;;;10.10;87.80;;;;;;4930146;28;112678;-53
2024/02/23 03:38:54;;;;;;;31.55;28.33;;;10.10;87.80;;;;;;4930352;28;113215;-53
2024/02/23 03:41:20;;;;;;;25.27;22.58;;;10.20;87.80;;;;;;4931143;28;112857;-53
2024/02/23 03:43:45;;;;;;;25.45;22.85;;;10.10;87.80;;;;;;4929836;28;114454;-52
2024/02/23 03:46:11;;;;;;;24.25;21.65;;;10.10;87.90;;;;;;4930016;28;114484;-53
2024/02/23 03:48:37;;;;;;;23.30;20.98;;;10.10;87.80;;;;;;4930038;28;112727;-53
2024/02/23 03:51:07;;;;;;;26.30;22.77;;;10.10;87.70;;;;;;4932720;28;112704;-52
2024/02/23 03:53:33;;;;;;;24.48;21.98;;;10.10;87.60;;;;;;4929684;28;113232;-51
2024/02/23 03:55:58;;;;;;;25.95;22.10;;;10.10;87.60;;;;;;4930088;28;114221;-53
2024/02/23 03:58:24;;;;;;;23.90;21.27;;;10.10;87.70;;;;;;4930771;28;112731;-52
2024/02/23 04:00:50;;;;;;;25.75;22.00;;;10.10;87.70;;;;;;4931217;28;112795;-53
2024/02/23 04:03:15;;;;;;;24.85;22.08;;;10.10;87.70;;;;;;4929431;28;114430;-50
2024/02/23 04:05:41;;;;;;;25.25;22.67;;;10.10;87.80;;;;;;4930366;28;113100;-52
2024/02/23 04:08:06;;;;;;;25.83;22.52;;;10.10;87.80;;;;;;4929526;28;114112;-51
2024/02/23 04:10:32;;;;;;;24.80;22.23;;;10.10;87.80;;;;;;4931348;28;112988;-52
2024/02/23 04:12:58;;;;;;;25.38;22.35;;;10.10;87.80;;;;;;4926204;28;113237;-52
2024/02/23 04:15:24;;;;;;;25.90;22.48;;;10.00;88.20;;;;;;4929598;28;114725;-53
2024/02/23 04:17:49;;;;;;;26.10;22.55;;;10.10;88.00;;;;;;4931026;28;112645;-53
2024/02/23 04:20:15;;;;;;;26.60;22.35;;;10.10;88.10;;;;;;4930406;28;112739;-53
2024/02/23 04:22:41;;;;;;;25.40;21.85;;;10.10;88.10;;;;;;4929271;28;114643;-53
2024/02/23 04:25:07;;;;;;;22.80;20.40;;;10.10;88.10;;;;;;4929279;28;114104;-53
2024/02/23 04:27:32;;;;;;;22.95;20.63;;;10.10;88.00;;;;;;4931224;28;113007;-52
2024/02/23 04:29:58;;;;;;;23.48;21.02;;;10.10;87.80;;;;;;4930274;28;112647;-53
2024/02/23 04:32:24;;;;;;;23.75;21.17;;;10.20;87.90;;;;;;4929397;28;114782;-53
2024/02/23 04:34:49;;;;;;;24.38;21.17;;;10.20;87.90;;;;;;4929371;28;112940;-53
2024/02/23 04:37:15;;;;;;;24.48;21.88;;;10.10;88.20;;;;;;4930713;28;112965;-53
2024/02/23 04:39:43;;;;;;;26.92;20.35;;;10.00;88.70;;;;;;4929876;28;113007;-53
2024/02/23 04:42:09;;;;;;;24.33;18.98;;;10.10;88.20;;;;;;4929266;28;115073;-53
2024/02/23 04:44:35;;;;;;;22.50;18.50;;;10.20;87.90;;;;;;4929552;28;113113;-53
2024/02/23 04:47:01;;;;;;;23.17;19.52;;;10.20;87.80;;;;;;4930822;28;112977;-53
2024/02/23 04:49:27;;;;;;;21.08;17.83;;;10.30;87.50;;;;;;4929838;28;112838;-53
2024/02/23 04:51:53;;;;;;;21.83;16.52;;;10.30;87.60;;;;;;4929606;28;113243;-53
2024/02/23 04:54:19;;;;;;;22.08;16.63;;;10.30;87.70;;;;;;4929336;28;112561;-51
2024/02/23 04:56:45;;;;;;;21.40;17.23;;;10.30;87.50;;;;;;4929280;28;112797;-53
2024/02/23 04:59:10;;;;;;;23.65;17.95;;;10.30;87.80;;;;;;4930128;28;112649;-53
2024/02/23 05:01:37;;;;;;;20.70;16.60;;;10.30;87.90;;;;;;4928511;28;113608;-53
2024/02/23 05:04:03;;;;;;;20.98;15.75;;;10.20;87.80;;;;;;4928116;28;112732;-52
2024/02/23 05:06:29;;;;;;;19.05;16.30;;;10.30;87.70;;;;;;4929722;28;112910;-51
2024/02/23 05:08:55;;;;;;;17.63;14.75;;;10.30;87.70;;;;;;4928919;28;113095;-51
2024/02/23 05:11:21;;;;;;;20.95;14.90;;;10.30;87.60;;;;;;4928517;28;113255;-51
2024/02/23 05:13:47;;;;;;;15.85;13.70;;;10.30;87.60;;;;;;4928931;28;112561;-53
2024/02/23 05:16:16;;;;;;;21.70;13.13;;;10.30;87.60;;;;;;4929809;28;112513;-51
2024/02/23 05:18:43;;;;;;;14.13;10.20;;;10.30;87.50;;;;;;4929742;28;112794;-51
2024/02/23 05:21:09;;;;;;;16.98;9.90;;;10.40;86.70;;;;;;4928571;28;115092;-52
2024/02/23 05:23:35;;;;;;;16.05;10.30;;;10.40;86.60;;;;;;4923329;28;112680;-51
2024/02/23 05:26:01;;;;;;;17.63;9.65;;;10.40;87.00;;;;;;4929762;28;112608;-52
2024/02/23 05:28:27;;;;;;;18.20;11.82;;;10.40;86.70;;;;;;4920391;28;113104;-51
2024/02/23 05:30:54;;;;;;;19.42;11.07;;;10.40;87.40;;;;;;4926134;28;113164;-52
2024/02/23 05:33:20;;;;;;;19.80;10.93;;;10.40;87.50;;;;;;4923403;28;112785;-51
2024/02/23 05:35:49;;;;;;;17.58;10.75;;;10.40;87.40;;;;;;4929737;28;113022;-51
2024/02/23 05:38:15;;;;;;;16.27;10.75;;;10.40;87.60;;;;;;4928891;28;113260;-51
2024/02/23 05:40:41;;;;;;;16.67;9.85;;;10.40;87.50;;;;;;4927756;28;113674;-52
2024/02/23 05:43:07;;;;;;;14.75;9.50;;;10.30;87.30;;;;;;4927124;28;113286;-52
2024/02/23 05:45:33;;;;;;;15.93;8.57;;;10.40;87.40;;;;;;4930612;28;112622;-51
2024/02/23 05:47:59;;;;;;;16.33;8.75;;;10.40;87.20;;;;;;4930530;28;112676;-53
2024/02/23 05:50:24;;;;;;;15.18;8.43;;;10.50;86.50;;;;;;4929402;28;115435;-51
2024/02/23 05:52:50;;;;;;;14.77;7.10;;;10.50;86.50;;;;;;4928765;28;112860;-53
2024/02/23 05:55:16;;;;;;;17.67;5.10;;;10.50;86.20;;;;;;4929873;28;112883;-53
2024/02/23 05:57:42;;;;;;;12.00;4.13;;;10.70;82.20;;;;;;4930376;28;112744;-53
2024/02/23 06:00:08;;;;;;;13.73;3.88;;;11.00;80.00;;;;;;4928469;28;114991;-53
2024/02/23 06:02:34;;;;;;;12.45;3.70;;;11.20;78.90;;;;;;4928807;28;112871;-53
2024/02/23 06:04:59;;;;;;;15.95;4.28;;;11.30;78.10;;;;;;4923236;28;112643;-53
2024/02/23 06:07:29;;;;;;;13.93;4.13;;;11.30;77.50;;;;;;4929794;28;113082;-53
2024/02/23 06:09:58;;;;;;;11.68;3.83;;;11.50;76.80;;;;;;4940819;28;116562;-53
2024/02/23 06:12:27;;;;;;;11.43;4.13;;;11.60;75.50;;;;;;4929847;28;112776;-53
2024/02/23 06:14:52;;;;;;;10.57;3.13;;;11.70;74.90;;;;;;4928255;28;112585;-52
2024/02/23 06:17:18;;;;;;;10.57;3.47;;;11.80;74.10;;;;;;4929530;28;112662;-51
2024/02/23 06:19:44;;;;;;;14.15;4.22;;;11.80;74.60;;;;;;4921704;28;114396;-51
2024/02/23 06:22:10;;;;;;;15.23;4.03;;;11.80;75.20;;;;;;4928305;28;113104;-51
2024/02/23 06:40:07;;;;;;;15.32;4.20;;;11.90;73.10;;;;;;4961924;28;112468;-51
2024/02/23 06:42:33;;;;;;;15.23;4.60;;;11.90;76.90;;;;;;4944920;28;113700;-51
2024/02/23 06:44:59;;;;;;;16.20;4.57;;;11.80;77.40;;;;;;4945593;28;112993;-51
2024/02/23 06:47:25;;;;;;;16.23;4.55;;;11.90;77.50;;;;;;4945240;28;113435;-51
2024/02/23 06:49:50;;;;;;;16.92;4.78;;;11.90;78.10;;;;;;4944548;28;114940;-51
2024/02/23 06:52:17;;;;;;;21.20;5.55;;;11.90;78.20;;;;;;4946404;28;112688;-51
2024/02/23 06:54:43;;;;;;;16.60;4.70;;;11.90;78.40;;;;;;4944731;28;112709;-53
2024/02/23 06:57:09;;;;;;;18.77;4.97;;;11.90;78.30;;;;;;4943379;28;113787;-52
2024/02/23 06:59:35;;;;;;;16.10;5.10;;;11.90;78.90;;;;;;4943155;28;114508;-51
2024/02/23 07:02:01;;;;;;;19.25;4.65;;;11.80;78.90;;;;;;4942893;28;112545;-50
2024/02/23 07:04:28;;;;;;;20.63;4.50;;;11.80;78.60;;;;;;4944713;28;112710;-51
2024/02/23 07:06:55;;;;;;;21.23;5.18;;;11.90;78.10;;;;;;4941605;28;112884;-51
2024/02/23 07:09:21;;;;;;;15.10;4.30;;;11.90;78.20;;;;;;4943276;28;112780;-51
2024/02/23 07:11:46;;;;;;;20.23;4.60;;;11.90;77.50;;;;;;4943905;28;112948;-51
2024/02/23 07:14:14;;;;;;;14.95;4.20;;;11.90;78.20;;;;;;4938896;28;112711;-51
2024/02/23 07:16:40;;;;;;;16.77;4.95;;;11.90;78.20;;;;;;4931217;28;113389;-51
2024/02/23 07:19:07;;;;;;;16.70;4.50;;;11.90;78.70;;;;;;4934381;28;112965;-51
2024/02/23 07:21:33;;;;;;;22.35;5.22;;;11.90;78.10;;;;;;4933094;28;113027;-51
2024/02/23 07:23:59;;;;;;;21.02;5.57;;;11.90;78.90;;;;;;4933896;28;112752;-51
2024/02/23 07:26:27;;;;;;;18.55;4.55;;;11.90;78.90;;;;;;4934356;28;113335;-51
2024/02/23 07:28:54;;;;;;;21.25;5.00;;;11.90;79.00;;;;;;4931524;28;112877;-51
2024/02/23 07:31:19;;;;;;;21.73;4.53;;;11.90;79.00;;;;;;4936566;28;112765;-51
2024/02/23 07:33:45;;;;;;;19.33;4.63;;;11.90;77.20;;;;;;4932418;28;112971;-52
2024/02/23 07:36:17;;;;;;;15.68;4.80;;;11.90;78.20;;;;;;4936261;28;114408;-51
2024/02/23 07:38:44;;;;;;;17.48;5.25;;;11.90;77.60;;;;;;4930177;28;113674;-51
2024/02/23 07:41:11;;;;;;;16.55;4.15;;;12.00;77.00;;;;;;4923051;28;112868;-51
2024/02/23 07:43:36;;;;;;;14.35;3.95;;;12.00;76.40;;;;;;4921640;28;112829;-52
2024/02/23 07:46:03;;;;;;;20.02;4.75;;;12.00;76.40;;;;;;4920835;28;113141;-52
2024/02/23 07:48:29;;;;;;;21.40;4.68;;;12.00;75.50;;;;;;4922361;28;112749;-51
2024/02/23 07:50:55;;;;;;;14.13;4.43;;;12.10;75.80;;;;;;4923405;28;112811;-51
2024/02/23 07:53:20;;;;;;;13.77;4.07;;;12.00;76.00;;;;;;4932461;28;112630;-52
2024/02/23 07:55:46;;;;;;;14.23;4.57;;;12.10;74.50;;;;;;4931061;28;113800;-51
2024/02/23 07:58:11;;;;;;;17.50;4.15;;;12.10;74.50;;;;;;4931109;28;113132;-51
2024/02/23 08:00:38;;;;;;;12.82;3.50;;;12.10;74.20;;;;;;4932370;28;112856;-51
2024/02/23 08:03:04;;;;;;;16.17;4.07;;;12.10;74.60;;;;;;4932264;28;112709;-51
2024/02/23 08:05:30;;;;;;;9.85;3.85;;;12.10;74.30;;;;;;4931058;28;113059;-51
2024/02/23 08:07:55;;;;;;;13.55;3.53;;;12.10;74.00;;;;;;4931058;28;113775;-51
2024/02/23 08:10:21;;;;;;;16.08;4.18;;;12.10;74.40;;;;;;4931997;28;112950;-51
2024/02/23 08:12:47;;;;;;;14.82;4.80;;;12.10;75.00;;;;;;4932562;28;113014;-51
2024/02/23 08:15:13;;;;;;;9.23;3.58;;;12.10;74.10;;;;;;4930989;28;113203;-51
2024/02/23 08:17:39;;;;;;;13.00;4.03;;;12.10;75.70;;;;;;4931215;28;112678;-51
2024/02/23 08:20:05;;;;;;;11.65;4.43;;;12.20;73.50;;;;;;4932267;28;112799;-51
2024/02/23 08:22:31;;;;;;;18.25;5.47;;;12.20;74.00;;;;;;4931799;28;112789;-51
2024/02/23 08:24:56;;;;;;;12.88;6.35;;;12.10;77.20;;;;;;4930883;28;113407;-51
2024/02/23 08:27:22;;;;;;;11.85;5.95;;;11.90;79.40;;;;;;4931472;28;112556;-51
2024/02/23 08:29:48;;;;;;;16.70;6.97;;;11.80;80.50;;;;;;4930518;28;112567;-51
2024/02/23 08:32:14;;;;;;;16.75;8.55;;;11.60;81.90;;;;;;4931947;28;112761;-51
2024/02/23 08:34:39;;;;;;;15.63;6.93;;;11.50;82.30;;;;;;4930774;28;113109;-51
2024/02/23 08:37:05;;;;;;;14.25;7.97;;;11.50;83.00;;;;;;4930844;28;112878;-51
2024/02/23 08:39:31;;;;;;;11.15;5.93;;;11.40;82.90;;;;;;4931055;28;112728;-50
2024/02/23 08:41:57;;;;;;;17.52;6.90;;;11.40;81.00;;;;;;4932096;28;113122;-50
2024/02/23 08:44:22;;;;;;;12.40;6.80;;;11.40;82.20;;;;;;4930647;28;113229;-51
2024/02/23 08:46:48;;;;;;;15.57;6.57;;;11.50;82.60;;;;;;4930797;28;112949;-51
2024/02/23 08:49:14;;;;;;;16.17;5.88;;;11.50;82.70;;;;;;4916672;28;114861;-51
2024/02/23 08:51:40;;;;;;;18.70;6.53;;;11.50;82.50;;;;;;4927339;28;112697;-50
2024/02/23 08:54:07;;;;;;;15.65;6.60;;;11.40;83.10;;;;;;4930043;28;114424;-51
2024/02/23 08:56:39;;;;;;;16.05;6.07;;;11.40;83.30;;;;;;4930221;28;113732;-50
2024/02/23 08:59:04;;;;;;;15.20;6.43;;;11.50;83.40;;;;;;4931709;28;112683;-51
2024/02/23 09:01:30;;;;;;;14.95;6.43;;;11.40;83.30;;;;;;4931530;28;112875;-50
2024/02/23 09:03:56;;;;;;;14.15;7.03;;;11.40;83.50;;;;;;4925449;28;113309;-51
2024/02/23 09:06:21;;;;;;;22.20;8.52;;;11.20;83.60;;;;;;4911092;28;113327;-51
2024/02/23 09:08:47;;;;;;;19.38;7.80;;;11.30;83.80;;;;;;4913640;28;112733;-51
2024/02/23 09:11:15;;;;;;;13.02;7.05;;;11.20;84.60;;;;;;4912182;28;113020;-51
2024/02/23 09:13:42;;;;;;;16.65;6.32;;;11.20;84.60;;;;;;4910665;28;113347;-51
2024/02/23 09:16:08;;;;;;;12.13;6.78;;;11.20;83.90;;;;;;4909455;28;113739;-51
2024/02/23 09:18:34;;;;;;;15.55;7.60;;;11.10;84.20;;;;;;4912044;28;112556;-51
2024/02/23 09:21:00;;;;;;;12.85;6.25;;;11.10;84.70;;;;;;4911904;28;115479;-51
2024/02/23 09:23:26;;;;;;;14.45;6.43;;;11.00;84.60;;;;;;4910458;28;113972;-51
2024/02/23 09:25:52;;;;;;;10.85;6.13;;;11.00;84.50;;;;;;4911087;28;113819;-51
2024/02/23 09:28:17;;;;;;;12.25;6.25;;;10.90;84.70;;;;;;4911551;28;112824;-51
2024/02/23 09:30:43;;;;;;;18.00;7.65;;;11.00;84.60;;;;;;4911598;28;112732;-51
2024/02/23 09:33:09;;;;;;;12.02;5.80;;;11.10;84.90;;;;;;4910763;28;113174;-51
2024/02/23 09:35:35;;;;;;;9.50;5.85;;;11.00;84.80;;;;;;4910605;28;113008;-52
2024/02/23 09:38:00;;;;;;;12.60;5.88;;;11.00;84.50;;;;;;4911400;28;113043;-51
2024/02/23 09:40:26;;;;;;;10.23;6.05;;;10.90;84.70;;;;;;4911747;28;112983;-51
2024/02/23 09:42:57;;;;;;;15.27;6.50;;;11.00;84.60;;;;;;4910538;28;113750;-51
2024/02/23 09:45:26;;;;;;;11.40;6.13;;;11.00;85.10;;;;;;4910442;28;112762;-51
2024/02/23 09:47:55;;;;;;;10.13;5.93;;;10.90;85.00;;;;;;4911339;28;112771;-51
2024/02/23 09:50:23;;;;;;;18.17;6.55;;;10.90;85.10;;;;;;4916527;28;112820;-51
2024/02/23 09:52:50;;;;;;;11.85;6.55;;;11.00;84.90;;;;;;4929648;28;113216;-51
2024/02/23 09:55:18;;;;;;;15.23;7.45;;;11.00;84.80;;;;;;4929387;28;112955;-51
2024/02/23 09:57:46;;;;;;;13.95;7.10;;;11.10;84.30;;;;;;4930580;28;112671;-51
2024/02/23 10:00:12;;;;;;;19.65;8.07;;;11.20;84.00;;;;;;4930449;28;113077;-51
2024/02/23 10:02:40;;;;;;;18.33;7.65;;;11.20;84.80;;;;;;4929374;28;113383;-51
2024/02/23 10:05:07;;;;;;;17.13;6.72;;;11.20;84.70;;;;;;4929147;28;112785;-51
2024/02/23 10:07:33;;;;;;;12.82;6.57;;;11.30;84.50;;;;;;4930624;28;112517;-52
2024/02/23 10:09:59;;;;;;;18.83;6.78;;;11.20;84.90;;;;;;4930601;28;112867;-51
2024/02/23 10:12:25;;;;;;;19.02;8.65;;;11.30;84.70;;;;;;4929247;28;113475;-51
2024/02/23 10:14:51;;;;;;;16.60;8.57;;;11.30;84.70;;;;;;4929400;28;112879;-51
2024/02/23 10:17:17;;;;;;;19.98;8.70;;;11.30;85.20;;;;;;4930343;28;112670;-51
2024/02/23 10:19:44;;;;;;;21.33;8.35;;;11.40;84.60;;;;;;4930708;28;112893;-51
2024/02/23 10:22:11;;;;;;;20.13;8.15;;;11.40;84.50;;;;;;4929006;28;113310;-52
2024/02/23 10:24:37;;;;;;;20.08;7.85;;;11.30;85.00;;;;;;4929132;28;112680;-51
2024/02/23 10:27:03;;;;;;;17.02;7.38;;;11.30;84.40;;;;;;4930804;28;112791;-51
2024/02/23 10:29:29;;;;;;;19.75;6.40;;;11.30;83.90;;;;;;4930190;28;112676;-52
2024/02/23 10:31:58;;;;;;;18.25;7.05;;;11.40;83.80;;;;;;4929055;28;113157;-51
2024/02/23 10:34:26;;;;;;;17.85;7.00;;;11.50;84.10;;;;;;4929005;28;113221;-51
2024/02/23 10:36:53;;;;;;;20.23;7.65;;;11.50;84.10;;;;;;4930226;28;113869;-52
2024/02/23 10:39:22;;;;;;;20.95;7.38;;;11.40;85.00;;;;;;4923795;28;112748;-51
2024/02/23 10:42:01;;;;;;;17.33;7.28;;;11.40;84.70;;;;;;4925415;28;113193;-51
2024/02/23 10:44:28;;;;;;;20.02;7.78;;;11.40;84.70;;;;;;4916649;28;113702;-52
2024/02/23 10:46:54;;;;;;;15.10;6.50;;;11.40;84.70;;;;;;4921164;28;112855;-52
2024/02/23 10:49:26;;;;;;;14.23;6.47;;;11.60;84.60;;;;;;4915825;28;114406;-52
2024/02/23 10:51:52;;;;;;;18.85;7.72;;;11.60;85.00;;;;;;4928326;28;114698;-52
2024/02/23 10:54:20;;;;;;;19.88;8.07;;;11.40;85.80;;;;;;4928184;28;113109;-52
2024/02/23 10:56:53;;;;;;;22.63;7.78;;;11.40;86.20;;;;;;4921616;28;112990;-52
2024/02/23 10:59:19;;;;;;;22.08;8.38;;;11.40;86.50;;;;;;4910346;28;112722;-52
2024/02/23 11:01:49;;;;;;;19.50;8.48;;;11.30;86.80;;;;;;4915973;28;113232;-52
2024/02/23 11:04:16;;;;;;;18.77;9.02;;;11.30;86.60;;;;;;4928334;28;112699;-52
2024/02/23 11:06:42;;;;;;;16.00;7.85;;;11.30;86.60;;;;;;4929220;28;112545;-52
2024/02/23 11:09:13;;;;;;;18.35;8.25;;;11.30;86.90;;;;;;4929268;28;112965;-52
2024/02/23 11:11:38;;;;;;;14.43;7.10;;;11.30;86.60;;;;;;4928309;28;115055;-52
2024/02/23 11:14:09;;;;;;;19.65;8.18;;;11.30;86.80;;;;;;4918618;28;112905;-52
2024/02/23 11:16:40;;;;;;;16.90;7.80;;;11.30;86.90;;;;;;4928064;28;113009;-52
2024/02/23 11:19:11;;;;;;;18.88;8.05;;;11.30;87.10;;;;;;4932508;28;113139;-52
2024/02/23 11:21:38;;;;;;;20.30;9.38;;;11.20;87.20;;;;;;4931419;28;114499;-52
2024/02/23 11:24:04;;;;;;;18.20;8.55;;;11.20;87.30;;;;;;4931295;28;113661;-52
2024/02/23 11:26:31;;;;;;;15.65;8.50;;;11.20;87.30;;;;;;4932948;28;112621;-52
2024/02/23 11:28:58;;;;;;;19.17;9.30;;;11.30;87.20;;;;;;4932237;28;112811;-52
2024/02/23 11:31:25;;;;;;;20.67;11.55;;;11.20;87.30;;;;;;4931496;28;113746;-52
2024/02/23 11:33:51;;;;;;;21.98;10.55;;;11.20;87.30;;;;;;4930182;28;113789;-52
2024/02/23 11:36:32;;;;;;;18.83;10.80;;;11.10;87.40;;;;;;4931573;28;112633;-52
2024/02/23 11:39:00;;;;;;;22.77;12.93;;;11.10;87.50;;;;;;4931176;28;113179;-52
2024/02/23 11:41:27;;;;;;;20.15;9.93;;;11.10;87.60;;;;;;4930304;28;113570;-52
2024/02/23 11:43:55;;;;;;;18.30;9.52;;;11.20;87.50;;;;;;4931052;28;112892;-53
2024/02/23 11:46:21;;;;;;;23.67;9.50;;;11.30;87.20;;;;;;4931950;28;112530;-52
2024/02/23 11:48:53;;;;;;;13.60;8.20;;;11.20;87.40;;;;;;4918255;28;112849;-52
2024/02/23 11:51:19;;;;;;;16.83;8.07;;;11.10;87.40;;;;;;4931028;28;114462;-52
2024/02/23 11:53:46;;;;;;;13.52;7.75;;;11.10;87.10;;;;;;4931118;28;112935;-52
2024/02/23 11:56:11;;;;;;;14.95;8.15;;;11.10;87.20;;;;;;4931865;28;112525;-52
2024/02/23 11:58:37;;;;;;;13.00;8.27;;;11.00;87.30;;;;;;4932359;28;112738;-52
2024/02/23 12:01:03;;;;;;;14.05;8.25;;;11.10;87.50;;;;;;4931118;28;113299;-52
2024/02/23 12:03:32;;;;;;;16.48;9.13;;;11.00;87.60;;;;;;4930877;28;113749;-52
2024/02/23 12:05:58;;;;;;;27.67;15.85;;;10.90;87.70;;;;;;4931726;28;112709;-52
2024/02/23 12:08:29;;;;;;;21.60;14.40;;;11.10;87.30;;;;;;4930943;28;112896;-52
2024/02/23 12:10:56;;;;;;;14.60;8.70;;;11.20;86.90;;;;;;4929746;28;113293;-52
2024/02/23 12:13:22;;;;;;;15.88;8.35;;;11.20;86.90;;;;;;4930731;28;112891;-52
2024/02/23 12:15:52;;;;;;;12.65;8.55;;;11.30;86.50;;;;;;4931819;28;112756;-52
2024/02/23 12:18:19;;;;;;;16.52;8.70;;;11.30;86.50;;;;;;4931607;28;112847;-52
2024/02/23 12:20:47;;;;;;;21.42;9.73;;;11.20;87.20;;;;;;4930576;28;113192;-52
2024/02/23 12:23:13;;;;;;;19.50;9.00;;;11.20;87.10;;;;;;4930497;28;112672;-52
2024/02/23 12:25:39;;;;;;;15.10;9.10;;;11.10;87.30;;;;;;4932507;28;113358;-52
2024/02/23 12:28:05;;;;;;;16.73;8.40;;;11.10;87.60;;;;;;4931299;28;112691;-52
2024/02/23 12:30:32;;;;;;;14.75;9.40;;;11.10;87.50;;;;;;4930324;28;114474;-52
2024/02/23 12:33:07;;;;;;;20.85;11.38;;;11.00;88.00;;;;;;4929920;28;113796;-53
2024/02/23 12:35:35;;;;;;;38.00;28.00;;;11.00;88.00;;;;;;4930436;28;113243;-52